createdAt,value
2017-09-28T00:00:21.448Z,0
2017-09-28T00:01:33.686Z,0
2017-09-28T00:02:46.189Z,0
2017-09-28T00:03:58.714Z,0
2017-09-28T00:05:10.307Z,0
2017-09-28T00:06:22.844Z,0
2017-09-28T00:07:35.075Z,0
2017-09-28T00:08:47.570Z,0
2017-09-28T00:09:59.783Z,0
2017-09-28T00:11:12.312Z,0
2017-09-28T00:12:24.523Z,0
2017-09-28T00:13:37.054Z,0
2017-09-28T00:14:49.553Z,0
2017-09-28T00:16:01.769Z,0
2017-09-28T00:17:14.271Z,0
2017-09-28T00:18:26.807Z,0
2017-09-28T00:19:39.325Z,0
2017-09-28T00:20:51.827Z,0
2017-09-28T00:22:04.340Z,0
2017-09-28T00:23:16.843Z,0
2017-09-28T00:24:29.340Z,0
2017-09-28T00:25:41.835Z,0
2017-09-28T00:26:54.028Z,0
2017-09-28T00:28:06.549Z,0
2017-09-28T00:29:18.744Z,0
2017-09-28T00:30:31.292Z,0
2017-09-28T00:31:43.786Z,0
2017-09-28T00:32:55.998Z,0
2017-09-28T00:34:07.896Z,0
2017-09-28T00:35:20.415Z,0
2017-09-28T00:36:32.624Z,0
2017-09-28T00:37:44.816Z,0
2017-09-28T00:38:57.338Z,0
2017-09-28T00:40:09.531Z,0
2017-09-28T00:41:22.042Z,0
2017-09-28T00:42:34.552Z,0
2017-09-28T00:43:47.045Z,0
2017-09-28T00:44:59.254Z,0
2017-09-28T00:46:11.170Z,0
2017-09-28T00:47:23.685Z,0
2017-09-28T00:48:35.894Z,0
2017-09-28T00:49:48.399Z,0
2017-09-28T00:51:00.918Z,0
2017-09-28T00:52:13.418Z,0
2017-09-28T00:53:25.907Z,0
2017-09-28T00:54:38.379Z,0
2017-09-28T00:55:50.273Z,0
2017-09-28T00:57:02.171Z,0
2017-09-28T00:58:14.664Z,0
2017-09-28T00:59:26.577Z,0
2017-09-28T01:00:38.757Z,0
2017-09-28T01:01:50.369Z,0
2017-09-28T01:03:02.875Z,0
2017-09-28T01:04:15.046Z,0
2017-09-28T01:05:27.256Z,0
2017-09-28T01:06:39.466Z,0
2017-09-28T01:07:51.654Z,0
2017-09-28T01:09:03.551Z,0
2017-09-28T01:10:15.720Z,0
2017-09-28T01:11:28.236Z,0
2017-09-28T01:12:40.764Z,0
2017-09-28T01:13:52.977Z,0
2017-09-28T01:15:05.181Z,0
2017-09-28T01:16:17.377Z,0
2017-09-28T01:17:29.574Z,0
2017-09-28T01:18:42.090Z,0
2017-09-28T01:19:54.587Z,0
2017-09-28T01:21:07.100Z,0
2017-09-28T01:22:19.333Z,0
2017-09-28T01:23:31.853Z,0
2017-09-28T01:24:44.351Z,0
2017-09-28T01:25:56.840Z,0
2017-09-28T01:27:09.037Z,0
2017-09-28T01:28:20.932Z,0
2017-09-28T01:29:33.427Z,0
2017-09-28T01:30:45.322Z,0
2017-09-28T01:31:57.825Z,0
2017-09-28T01:33:10.045Z,0
2017-09-28T01:34:22.554Z,0
2017-09-28T01:35:34.758Z,0
2017-09-28T01:36:47.254Z,0
2017-09-28T01:37:59.449Z,0
2017-09-28T01:39:11.962Z,0
2017-09-28T01:40:24.458Z,0
2017-09-28T01:41:36.958Z,0
2017-09-28T01:42:49.130Z,0
2017-09-28T01:44:01.642Z,0
2017-09-28T01:45:13.848Z,0
2017-09-28T01:46:26.358Z,0
2017-09-28T01:47:38.867Z,0
2017-09-28T01:48:51.359Z,0
2017-09-28T01:50:03.580Z,0
2017-09-28T01:51:15.781Z,0
2017-09-28T01:52:28.312Z,0
2017-09-28T01:53:40.834Z,0
2017-09-28T01:54:53.336Z,0
2017-09-28T01:56:05.835Z,0
2017-09-28T01:57:17.727Z,0
2017-09-28T01:58:29.921Z,0
2017-09-28T01:59:42.119Z,0
2017-09-28T02:00:54.621Z,0
2017-09-28T02:02:06.510Z,0
2017-09-28T02:03:18.724Z,0
2017-09-28T02:04:31.225Z,0
2017-09-28T02:05:43.100Z,0
2017-09-28T02:06:55.294Z,0
2017-09-28T02:08:07.493Z,0
2017-09-28T02:09:19.986Z,0
2017-09-28T02:10:32.504Z,0
2017-09-28T02:11:44.976Z,0
2017-09-28T02:12:57.469Z,0
2017-09-28T02:14:09.671Z,0
2017-09-28T02:15:21.288Z,0
2017-09-28T02:16:33.806Z,0
2017-09-28T02:17:45.681Z,0
2017-09-28T02:18:58.199Z,0
2017-09-28T02:20:09.796Z,0
2017-09-28T02:21:22.241Z,0
2017-09-28T02:22:34.452Z,0
2017-09-28T02:23:46.338Z,0
2017-09-28T02:24:58.552Z,0
2017-09-28T02:26:10.146Z,0
2017-09-28T02:27:22.617Z,0
2017-09-28T02:28:34.514Z,0
2017-09-28T02:29:47.016Z,0
2017-09-28T02:30:59.549Z,0
2017-09-28T02:32:11.778Z,0
2017-09-28T02:33:23.647Z,0
2017-09-28T02:34:36.148Z,0
2017-09-28T02:35:48.639Z,0
2017-09-28T02:37:00.536Z,0
2017-09-28T02:38:12.707Z,0
2017-09-28T02:39:24.906Z,0
2017-09-28T02:40:37.396Z,0
2017-09-28T02:41:49.892Z,0
2017-09-28T02:43:02.394Z,0
2017-09-28T02:44:13.981Z,0
2017-09-28T02:45:26.503Z,0
2017-09-28T02:46:38.717Z,0
2017-09-28T02:47:50.289Z,0
2017-09-28T02:49:02.215Z,0
2017-09-28T02:50:14.712Z,0
2017-09-28T02:51:27.224Z,0
2017-09-28T02:52:39.746Z,0
2017-09-28T02:53:51.972Z,0
2017-09-28T02:55:04.193Z,0
2017-09-28T02:56:16.690Z,0
2017-09-28T02:57:29.210Z,0
2017-09-28T02:58:41.709Z,0
2017-09-28T02:59:53.904Z,0
2017-09-28T03:01:06.400Z,0
2017-09-28T03:02:18.892Z,0
2017-09-28T03:03:31.407Z,0
2017-09-28T03:04:43.610Z,0
2017-09-28T03:05:56.133Z,0
2017-09-28T03:07:08.301Z,0
2017-09-28T03:08:20.495Z,0
2017-09-28T03:09:32.968Z,0
2017-09-28T03:10:45.160Z,0
2017-09-28T03:11:57.358Z,0
2017-09-28T03:13:09.581Z,0
2017-09-28T03:14:22.078Z,0
2017-09-28T03:15:33.988Z,0
2017-09-28T03:16:46.491Z,0
2017-09-28T03:17:58.085Z,0
2017-09-28T03:19:10.584Z,0
2017-09-28T03:20:23.077Z,0
2017-09-28T03:21:34.974Z,0
2017-09-28T03:22:47.192Z,0
2017-09-28T03:23:59.705Z,0
2017-09-28T03:25:11.933Z,0
2017-09-28T03:26:24.131Z,0
2017-09-28T03:27:36.319Z,0
2017-09-28T03:28:48.225Z,0
2017-09-28T03:30:00.736Z,0
2017-09-28T03:31:13.238Z,0
2017-09-28T03:32:25.737Z,0
2017-09-28T03:33:37.931Z,0
2017-09-28T03:34:50.468Z,0
2017-09-28T03:36:02.964Z,0
2017-09-28T03:37:15.116Z,0
2017-09-28T03:38:27.628Z,0
2017-09-28T03:39:40.126Z,0
2017-09-28T03:40:52.629Z,0
2017-09-28T03:42:04.842Z,0
2017-09-28T03:43:17.346Z,0
2017-09-28T03:44:29.891Z,0
2017-09-28T03:45:42.387Z,0
2017-09-28T03:46:54.897Z,0
2017-09-28T03:48:07.379Z,0
2017-09-28T03:49:19.896Z,0
2017-09-28T03:50:32.113Z,0
2017-09-28T03:51:44.317Z,0
2017-09-28T03:52:56.826Z,0
2017-09-28T03:54:09.306Z,0
2017-09-28T03:55:21.832Z,0
2017-09-28T03:56:34.343Z,0
2017-09-28T03:57:46.547Z,0
2017-09-28T03:58:59.057Z,0
2017-09-28T04:00:11.558Z,0
2017-09-28T04:01:24.058Z,0
2017-09-28T04:02:36.551Z,0
2017-09-28T04:03:49.044Z,0
2017-09-28T04:05:01.591Z,0
2017-09-28T04:06:13.489Z,0
2017-09-28T04:07:26.024Z,0
2017-09-28T04:08:38.548Z,0
2017-09-28T04:09:50.697Z,0
2017-09-28T04:11:02.897Z,0
2017-09-28T04:12:15.392Z,0
2017-09-28T04:13:27.889Z,0
2017-09-28T04:14:40.386Z,0
2017-09-28T04:15:52.903Z,0
2017-09-28T04:17:05.398Z,0
2017-09-28T04:18:17.892Z,0
2017-09-28T04:19:30.439Z,0
2017-09-28T04:20:42.333Z,0
2017-09-28T04:21:54.530Z,0
2017-09-28T04:23:07.024Z,0
2017-09-28T04:24:19.539Z,0
2017-09-28T04:25:32.023Z,0
2017-09-28T04:26:44.543Z,0
2017-09-28T04:27:57.041Z,0
2017-09-28T04:29:09.230Z,0
2017-09-28T04:30:21.441Z,0
2017-09-28T04:31:33.962Z,0
2017-09-28T04:32:46.440Z,0
2017-09-28T04:33:58.965Z,0
2017-09-28T04:35:11.176Z,0
2017-09-28T04:36:23.682Z,0
2017-09-28T04:37:35.875Z,0
2017-09-28T04:38:48.044Z,0
2017-09-28T04:40:00.545Z,0
2017-09-28T04:41:12.729Z,0
2017-09-28T04:42:25.535Z,0
2017-09-28T04:43:38.050Z,0
2017-09-28T04:44:50.566Z,0
2017-09-28T04:46:02.772Z,0
2017-09-28T04:47:14.958Z,0
2017-09-28T04:48:27.159Z,0
2017-09-28T04:49:38.757Z,0
2017-09-28T04:50:50.954Z,0
2017-09-28T04:52:03.479Z,0
2017-09-28T04:53:15.967Z,0
2017-09-28T04:54:28.191Z,0
2017-09-28T04:55:40.407Z,0
2017-09-28T04:56:52.584Z,0
2017-09-28T04:58:05.074Z,0
2017-09-28T04:59:17.274Z,5
2017-09-28T05:00:29.767Z,5
2017-09-28T05:01:41.668Z,5
2017-09-28T05:02:53.559Z,5
2017-09-28T05:04:06.078Z,5
2017-09-28T05:05:18.275Z,5
2017-09-28T05:06:30.468Z,10
2017-09-28T05:07:42.684Z,10
2017-09-28T05:08:55.238Z,10
2017-09-28T05:10:07.760Z,10
2017-09-28T05:11:20.250Z,10
2017-09-28T05:12:32.768Z,15
2017-09-28T05:13:44.995Z,15
2017-09-28T05:14:57.513Z,15
2017-09-28T05:16:09.710Z,15
2017-09-28T05:17:22.205Z,20
2017-09-28T05:18:34.704Z,20
2017-09-28T05:19:47.448Z,20
2017-09-28T05:20:59.942Z,20
2017-09-28T05:22:11.842Z,20
2017-09-28T05:23:24.338Z,25
2017-09-28T05:24:36.846Z,25
2017-09-28T05:25:48.729Z,25
2017-09-28T05:27:01.221Z,25
2017-09-28T05:28:13.110Z,25
2017-09-28T05:29:25.613Z,25
2017-09-28T05:30:38.138Z,30
2017-09-28T05:31:50.629Z,30
2017-09-28T05:33:03.148Z,30
2017-09-28T05:34:15.646Z,35
2017-09-28T05:35:28.139Z,35
2017-09-28T05:36:40.661Z,35
2017-09-28T05:37:53.198Z,40
2017-09-28T05:39:05.100Z,40
2017-09-28T05:40:17.596Z,45
2017-09-28T05:41:30.347Z,45
2017-09-28T05:42:42.866Z,45
2017-09-28T05:43:55.061Z,50
2017-09-28T05:45:07.262Z,50
2017-09-28T05:46:19.473Z,55
2017-09-28T05:47:31.971Z,55
2017-09-28T05:48:44.498Z,60
2017-09-28T05:49:56.386Z,60
2017-09-28T05:51:08.908Z,60
2017-09-28T05:52:21.107Z,60
2017-09-28T05:53:33.329Z,65
2017-09-28T05:54:45.527Z,65
2017-09-28T05:55:58.016Z,70
2017-09-28T05:57:10.217Z,75
2017-09-28T05:58:22.715Z,80
2017-09-28T05:59:35.254Z,85
2017-09-28T06:00:47.750Z,85
2017-09-28T06:02:00.242Z,90
2017-09-28T06:03:12.742Z,95
2017-09-28T06:04:25.235Z,95
2017-09-28T06:05:37.137Z,100
2017-09-28T06:06:49.676Z,105
2017-09-28T06:08:01.896Z,105
2017-09-28T06:09:14.397Z,110
2017-09-28T06:10:26.590Z,110
2017-09-28T06:11:37.878Z,110
2017-09-28T06:12:50.384Z,110
2017-09-28T06:14:02.592Z,115
2017-09-28T06:15:15.101Z,115
2017-09-28T06:16:27.308Z,115
2017-09-28T06:17:39.815Z,120
2017-09-28T06:18:52.008Z,120
2017-09-28T06:20:04.771Z,125
2017-09-28T06:21:17.293Z,125
2017-09-28T06:22:29.813Z,125
2017-09-28T06:23:42.310Z,130
2017-09-28T06:24:54.488Z,130
2017-09-28T06:26:06.981Z,135
2017-09-28T06:27:19.481Z,135
2017-09-28T06:28:31.977Z,135
2017-09-28T06:29:44.186Z,135
2017-09-28T06:30:56.691Z,135
2017-09-28T06:32:09.235Z,140
2017-09-28T06:33:21.457Z,140
2017-09-28T06:34:33.626Z,140
2017-09-28T06:35:45.825Z,145
2017-09-28T06:36:58.319Z,145
2017-09-28T06:38:10.830Z,145
2017-09-28T06:39:23.026Z,150
2017-09-28T06:40:34.907Z,150
2017-09-28T06:41:47.117Z,150
2017-09-28T06:42:59.623Z,155
2017-09-28T06:44:12.116Z,155
2017-09-28T06:45:24.338Z,160
2017-09-28T06:46:36.836Z,160
2017-09-28T06:47:49.373Z,165
2017-09-28T06:49:01.282Z,165
2017-09-28T06:50:13.496Z,170
2017-09-28T06:51:25.668Z,170
2017-09-28T06:52:38.161Z,170
2017-09-28T06:53:50.686Z,175
2017-09-28T06:55:02.877Z,175
2017-09-28T06:56:14.793Z,175
2017-09-28T06:57:27.270Z,180
2017-09-28T06:58:38.870Z,180
2017-09-28T06:59:51.365Z,185
2017-09-28T07:01:03.882Z,185
2017-09-28T07:02:16.080Z,190
2017-09-28T07:03:28.823Z,185
2017-09-28T07:04:40.717Z,190
2017-09-28T07:05:53.245Z,190
2017-09-28T07:07:05.137Z,190
2017-09-28T07:08:17.030Z,190
2017-09-28T07:09:29.530Z,195
2017-09-28T07:10:41.748Z,195
2017-09-28T07:11:53.949Z,195
2017-09-28T07:13:06.439Z,205
2017-09-28T07:14:18.640Z,210
2017-09-28T07:15:30.834Z,210
2017-09-28T07:16:43.431Z,205
2017-09-28T07:17:55.922Z,205
2017-09-28T07:19:08.115Z,215
2017-09-28T07:20:20.612Z,215
2017-09-28T07:21:33.107Z,215
2017-09-28T07:22:45.330Z,215
2017-09-28T07:23:57.240Z,215
2017-09-28T07:25:09.448Z,215
2017-09-28T07:26:21.638Z,215
2017-09-28T07:27:34.164Z,220
2017-09-28T07:28:46.374Z,220
2017-09-28T07:29:58.878Z,220
2017-09-28T07:31:10.774Z,225
2017-09-28T07:32:23.274Z,225
2017-09-28T07:33:35.488Z,225
2017-09-28T07:34:48.009Z,230
2017-09-28T07:36:00.497Z,230
2017-09-28T07:37:12.074Z,235
2017-09-28T07:38:24.590Z,235
2017-09-28T07:39:37.116Z,235
2017-09-28T07:40:49.316Z,240
2017-09-28T07:42:01.509Z,240
2017-09-28T07:43:13.711Z,240
2017-09-28T07:44:26.226Z,245
2017-09-28T07:45:38.749Z,245
2017-09-28T07:46:51.243Z,245
2017-09-28T07:48:03.737Z,245
2017-09-28T07:49:15.610Z,245
2017-09-28T07:50:28.130Z,250
2017-09-28T07:51:40.655Z,250
2017-09-28T07:52:52.869Z,250
2017-09-28T07:54:05.369Z,255
2017-09-28T07:55:17.579Z,255
2017-09-28T07:56:30.083Z,255
2017-09-28T07:57:42.827Z,255
2017-09-28T07:58:55.001Z,255
2017-09-28T08:00:07.494Z,255
2017-09-28T08:01:19.082Z,255
2017-09-28T08:02:31.308Z,260
2017-09-28T08:03:43.821Z,260
2017-09-28T08:04:55.999Z,260
2017-09-28T08:06:08.201Z,265
2017-09-28T08:07:20.086Z,265
2017-09-28T08:08:31.981Z,265
2017-09-28T08:09:44.508Z,270
2017-09-28T08:10:56.408Z,270
2017-09-28T08:12:08.299Z,270
2017-09-28T08:13:20.527Z,275
2017-09-28T08:14:33.016Z,275
2017-09-28T08:15:45.236Z,280
2017-09-28T08:16:57.736Z,280
2017-09-28T08:18:10.245Z,280
2017-09-28T08:19:22.702Z,285
2017-09-28T08:20:34.897Z,285
2017-09-28T08:21:47.089Z,285
2017-09-28T08:22:59.290Z,285
2017-09-28T08:24:11.156Z,285
2017-09-28T08:25:23.051Z,285
2017-09-28T08:26:34.949Z,290
2017-09-28T08:27:47.460Z,290
2017-09-28T08:28:59.646Z,290
2017-09-28T08:30:11.834Z,290
2017-09-28T08:31:24.033Z,300
2017-09-28T08:32:36.528Z,295
2017-09-28T08:33:48.726Z,300
2017-09-28T08:35:00.617Z,300
2017-09-28T08:36:12.205Z,300
2017-09-28T08:37:24.385Z,300
2017-09-28T08:38:36.611Z,300
2017-09-28T08:39:49.144Z,300
2017-09-28T08:41:01.345Z,300
2017-09-28T08:42:12.950Z,305
2017-09-28T08:43:25.136Z,305
2017-09-28T08:44:37.056Z,305
2017-09-28T08:45:49.572Z,310
2017-09-28T08:47:01.800Z,305
2017-09-28T08:48:13.994Z,305
2017-09-28T08:49:26.216Z,310
2017-09-28T08:50:38.436Z,310
2017-09-28T08:51:50.955Z,310
2017-09-28T08:53:03.154Z,315
2017-09-28T08:54:15.050Z,315
2017-09-28T08:55:27.250Z,315
2017-09-28T08:56:39.489Z,320
2017-09-28T08:57:51.746Z,320
2017-09-28T08:59:03.929Z,320
2017-09-28T09:00:16.432Z,325
2017-09-28T09:01:28.923Z,325
2017-09-28T09:02:41.135Z,330
2017-09-28T09:03:53.631Z,330
2017-09-28T09:05:05.533Z,330
2017-09-28T09:06:17.731Z,330
2017-09-28T09:07:30.249Z,330
2017-09-28T09:08:42.451Z,330
2017-09-28T09:09:54.657Z,330
2017-09-28T09:11:06.861Z,330
2017-09-28T09:12:19.360Z,330
2017-09-28T09:13:31.878Z,325
2017-09-28T09:14:43.776Z,325
2017-09-28T09:15:56.272Z,325
2017-09-28T09:17:08.467Z,325
2017-09-28T09:18:21.015Z,325
2017-09-28T09:19:33.532Z,330
2017-09-28T09:20:46.043Z,335
2017-09-28T09:21:58.546Z,335
2017-09-28T09:23:11.067Z,340
2017-09-28T09:24:23.583Z,345
2017-09-28T09:25:35.807Z,345
2017-09-28T09:26:47.698Z,355
2017-09-28T09:28:00.199Z,350
2017-09-28T09:29:12.702Z,355
2017-09-28T09:30:24.893Z,355
2017-09-28T09:31:37.113Z,355
2017-09-28T09:32:49.609Z,360
2017-09-28T09:34:02.105Z,360
2017-09-28T09:35:14.616Z,360
2017-09-28T09:36:26.820Z,360
2017-09-28T09:37:39.032Z,360
2017-09-28T09:38:50.638Z,360
2017-09-28T09:40:03.137Z,360
2017-09-28T09:41:15.054Z,370
2017-09-28T09:42:27.250Z,370
2017-09-28T09:43:39.747Z,370
2017-09-28T09:44:51.933Z,375
2017-09-28T09:46:04.433Z,375
2017-09-28T09:47:16.338Z,375
2017-09-28T09:48:28.554Z,375
2017-09-28T09:49:40.771Z,375
2017-09-28T09:50:53.268Z,370
2017-09-28T09:52:05.488Z,370
2017-09-28T09:53:17.987Z,375
2017-09-28T09:54:30.203Z,375
2017-09-28T09:55:42.704Z,375
2017-09-28T09:56:54.897Z,375
2017-09-28T09:58:07.146Z,380
2017-09-28T09:59:19.639Z,380
2017-09-28T10:00:31.552Z,380
2017-09-28T10:01:44.057Z,380
2017-09-28T10:02:56.550Z,375
2017-09-28T10:04:08.748Z,380
2017-09-28T10:05:21.248Z,380
2017-09-28T10:06:33.736Z,385
2017-09-28T10:07:45.934Z,395
2017-09-28T10:08:58.135Z,405
2017-09-28T10:10:10.053Z,405
2017-09-28T10:11:22.298Z,405
2017-09-28T10:12:34.814Z,405
2017-09-28T10:13:47.312Z,410
2017-09-28T10:14:59.830Z,410
2017-09-28T10:16:11.432Z,415
2017-09-28T10:17:23.021Z,415
2017-09-28T10:18:35.171Z,425
2017-09-28T10:19:47.363Z,435
2017-09-28T10:20:59.912Z,440
2017-09-28T10:22:12.412Z,445
2017-09-28T10:23:24.950Z,410
2017-09-28T10:24:37.165Z,455
2017-09-28T10:25:49.371Z,485
2017-09-28T10:27:01.265Z,495
2017-09-28T10:28:13.459Z,395
2017-09-28T10:29:25.654Z,475
2017-09-28T10:30:38.175Z,465
2017-09-28T10:31:50.675Z,460
2017-09-28T10:33:03.197Z,440
2017-09-28T10:34:15.708Z,415
2017-09-28T10:35:27.906Z,425
2017-09-28T10:36:40.110Z,420
2017-09-28T10:37:52.604Z,425
2017-09-28T10:39:04.547Z,430
2017-09-28T10:40:16.741Z,430
2017-09-28T10:41:29.235Z,440
2017-09-28T10:42:41.125Z,425
2017-09-28T10:43:53.654Z,450
2017-09-28T10:45:05.590Z,490
2017-09-28T10:46:17.795Z,510
2017-09-28T10:47:30.019Z,535
2017-09-28T10:48:42.503Z,555
2017-09-28T10:49:54.429Z,570
2017-09-28T10:51:06.301Z,565
2017-09-28T10:52:18.513Z,570
2017-09-28T10:53:31.017Z,585
2017-09-28T10:54:43.215Z,585
2017-09-28T10:55:55.734Z,585
2017-09-28T10:57:07.952Z,585
2017-09-28T10:58:20.149Z,560
2017-09-28T10:59:32.663Z,545
2017-09-28T11:00:45.181Z,560
2017-09-28T11:01:57.728Z,585
2017-09-28T11:03:09.626Z,595
2017-09-28T11:04:21.519Z,605
2017-09-28T11:05:34.030Z,610
2017-09-28T11:06:46.246Z,625
2017-09-28T11:07:58.492Z,625
2017-09-28T11:09:10.987Z,635
2017-09-28T11:10:23.181Z,630
2017-09-28T11:11:35.381Z,640
2017-09-28T11:12:47.898Z,650
2017-09-28T11:14:00.424Z,655
2017-09-28T11:15:12.312Z,640
2017-09-28T11:16:24.526Z,615
2017-09-28T11:17:36.705Z,595
2017-09-28T11:18:48.301Z,570
2017-09-28T11:20:00.802Z,530
2017-09-28T11:21:12.995Z,520
2017-09-28T11:22:24.888Z,555
2017-09-28T11:23:37.090Z,580
2017-09-28T11:24:49.603Z,600
2017-09-28T11:26:02.125Z,640
2017-09-28T11:27:14.021Z,670
2017-09-28T11:28:26.232Z,700
2017-09-28T11:29:38.459Z,695
2017-09-28T11:30:51.000Z,695
2017-09-28T11:32:02.897Z,670
2017-09-28T11:33:15.101Z,650
2017-09-28T11:34:26.994Z,615
2017-09-28T11:35:39.206Z,590
2017-09-28T11:36:51.710Z,610
2017-09-28T11:38:03.931Z,605
2017-09-28T11:39:16.448Z,605
2017-09-28T11:40:28.988Z,655
2017-09-28T11:41:40.894Z,665
2017-09-28T11:42:53.438Z,660
2017-09-28T11:44:05.628Z,655
2017-09-28T11:45:18.140Z,655
2017-09-28T11:46:30.051Z,655
2017-09-28T11:47:41.950Z,665
2017-09-28T11:48:54.169Z,665
2017-09-28T11:50:05.788Z,645
2017-09-28T11:51:18.290Z,615
2017-09-28T11:52:30.803Z,580
2017-09-28T11:53:43.304Z,550
2017-09-28T11:54:55.498Z,505
2017-09-28T11:56:07.411Z,470
2017-09-28T11:57:19.314Z,445
2017-09-28T11:58:31.835Z,435
2017-09-28T11:59:43.722Z,445
2017-09-28T12:00:55.923Z,430
2017-09-28T12:02:07.839Z,450
2017-09-28T12:03:20.066Z,465
2017-09-28T12:04:32.603Z,490
2017-09-28T12:05:45.106Z,515
2017-09-28T12:06:56.393Z,550
2017-09-28T12:08:07.675Z,565
2017-09-28T12:09:19.893Z,595
2017-09-28T12:10:32.095Z,615
2017-09-28T12:11:43.987Z,630
2017-09-28T12:12:56.505Z,645
2017-09-28T12:14:08.400Z,655
2017-09-28T12:15:20.898Z,685
2017-09-28T12:16:33.119Z,700
2017-09-28T12:17:45.331Z,720
2017-09-28T12:18:57.876Z,715
2017-09-28T12:20:09.804Z,685
2017-09-28T12:21:21.974Z,625
2017-09-28T12:22:34.189Z,600
2017-09-28T12:23:46.693Z,570
2017-09-28T12:24:58.925Z,550
2017-09-28T12:26:11.133Z,540
2017-09-28T12:27:23.326Z,525
2017-09-28T12:28:34.601Z,520
2017-09-28T12:29:46.211Z,530
2017-09-28T12:30:58.746Z,530
2017-09-28T12:32:10.963Z,525
2017-09-28T12:33:23.183Z,515
2017-09-28T12:34:35.679Z,505
2017-09-28T12:35:48.198Z,500
2017-09-28T12:37:00.094Z,495
2017-09-28T12:38:12.291Z,475
2017-09-28T12:39:24.185Z,475
2017-09-28T12:40:36.408Z,480
2017-09-28T12:41:48.601Z,480
2017-09-28T12:43:00.814Z,485
2017-09-28T12:44:13.017Z,505
2017-09-28T12:45:25.237Z,540
2017-09-28T12:46:37.436Z,540
2017-09-28T12:47:49.959Z,545
2017-09-28T12:49:02.177Z,545
2017-09-28T12:50:14.694Z,540
2017-09-28T12:51:26.897Z,530
2017-09-28T12:52:38.791Z,530
2017-09-28T12:53:50.701Z,535
2017-09-28T12:55:02.904Z,540
2017-09-28T12:56:14.799Z,540
2017-09-28T12:57:26.997Z,520
2017-09-28T12:58:39.517Z,495
2017-09-28T12:59:51.417Z,490
2017-09-28T13:01:03.891Z,500
2017-09-28T13:02:16.444Z,525
2017-09-28T13:03:28.350Z,515
2017-09-28T13:04:40.545Z,535
2017-09-28T13:05:52.456Z,515
2017-09-28T13:07:04.354Z,495
2017-09-28T13:08:16.280Z,485
2017-09-28T13:09:28.220Z,485
2017-09-28T13:10:40.746Z,465
2017-09-28T13:11:52.648Z,435
2017-09-28T13:13:04.238Z,415
2017-09-28T13:14:16.451Z,400
2017-09-28T13:15:28.955Z,385
2017-09-28T13:16:41.451Z,360
2017-09-28T13:17:53.345Z,355
2017-09-28T13:19:05.868Z,345
2017-09-28T13:20:18.404Z,340
2017-09-28T13:21:30.937Z,345
2017-09-28T13:22:42.828Z,340
2017-09-28T13:23:55.341Z,345
2017-09-28T13:25:07.242Z,345
2017-09-28T13:26:19.165Z,355
2017-09-28T13:27:31.668Z,350
2017-09-28T13:28:44.184Z,350
2017-09-28T13:29:56.702Z,350
2017-09-28T13:31:08.916Z,355
2017-09-28T13:32:21.418Z,355
2017-09-28T13:33:33.918Z,355
2017-09-28T13:34:46.470Z,360
2017-09-28T13:35:58.997Z,360
2017-09-28T13:37:10.906Z,365
2017-09-28T13:38:23.422Z,370
2017-09-28T13:39:35.318Z,380
2017-09-28T13:40:47.815Z,385
2017-09-28T13:42:00.039Z,390
2017-09-28T13:43:12.232Z,400
2017-09-28T13:44:24.450Z,405
2017-09-28T13:45:36.654Z,410
2017-09-28T13:46:49.166Z,415
2017-09-28T13:48:01.392Z,415
2017-09-28T13:49:13.282Z,425
2017-09-28T13:50:24.882Z,420
2017-09-28T13:51:37.066Z,420
2017-09-28T13:52:49.286Z,415
2017-09-28T13:54:01.798Z,410
2017-09-28T13:55:14.312Z,405
2017-09-28T13:56:26.835Z,400
2017-09-28T13:57:39.071Z,390
2017-09-28T13:58:51.273Z,385
2017-09-28T14:00:03.486Z,375
2017-09-28T14:01:15.065Z,370
2017-09-28T14:02:27.588Z,365
2017-09-28T14:03:39.508Z,355
2017-09-28T14:04:51.418Z,350
2017-09-28T14:06:03.002Z,345
2017-09-28T14:07:15.193Z,340
2017-09-28T14:08:27.719Z,335
2017-09-28T14:09:39.910Z,330
2017-09-28T14:10:52.425Z,330
2017-09-28T14:12:03.728Z,330
2017-09-28T14:13:15.930Z,335
2017-09-28T14:14:28.423Z,340
2017-09-28T14:15:40.636Z,345
2017-09-28T14:16:52.536Z,350
2017-09-28T14:18:04.754Z,360
2017-09-28T14:19:17.280Z,365
2017-09-28T14:20:29.700Z,370
2017-09-28T14:21:41.293Z,380
2017-09-28T14:22:53.187Z,390
2017-09-28T14:24:05.683Z,405
2017-09-28T14:25:17.903Z,415
2017-09-28T14:26:30.101Z,415
2017-09-28T14:27:42.320Z,415
2017-09-28T14:28:54.539Z,405
2017-09-28T14:30:07.036Z,400
2017-09-28T14:31:19.573Z,390
2017-09-28T14:32:31.506Z,385
2017-09-28T14:33:44.027Z,390
2017-09-28T14:34:56.538Z,400
2017-09-28T14:36:08.740Z,405
2017-09-28T14:37:21.239Z,405
2017-09-28T14:38:33.683Z,405
2017-09-28T14:39:45.906Z,400
2017-09-28T14:40:58.423Z,395
2017-09-28T14:42:10.942Z,395
2017-09-28T14:43:23.440Z,395
2017-09-28T14:44:35.976Z,390
2017-09-28T14:45:48.211Z,390
2017-09-28T14:47:00.103Z,390
2017-09-28T14:48:11.998Z,390
2017-09-28T14:49:24.546Z,390
2017-09-28T14:50:37.063Z,385
2017-09-28T14:51:49.633Z,370
2017-09-28T14:53:01.823Z,365
2017-09-28T14:54:14.449Z,360
2017-09-28T14:55:26.972Z,350
2017-09-28T14:56:39.491Z,340
2017-09-28T14:57:52.053Z,330
2017-09-28T14:59:04.600Z,325
2017-09-28T15:00:17.067Z,320
2017-09-28T15:01:29.723Z,305
2017-09-28T15:02:41.920Z,295
2017-09-28T15:03:54.517Z,275
2017-09-28T15:05:06.728Z,260
2017-09-28T15:06:18.647Z,245
2017-09-28T15:07:30.868Z,230
2017-09-28T15:08:43.373Z,215
2017-09-28T15:09:55.891Z,205
2017-09-28T15:11:08.107Z,190
2017-09-28T15:12:20.311Z,185
2017-09-28T15:13:32.810Z,175
2017-09-28T15:14:45.329Z,165
2017-09-28T15:15:57.844Z,165
2017-09-28T15:17:10.066Z,165
2017-09-28T15:18:21.966Z,165
2017-09-28T15:19:34.174Z,160
2017-09-28T15:20:46.672Z,155
2017-09-28T15:21:59.191Z,150
2017-09-28T15:23:10.471Z,140
2017-09-28T15:24:22.665Z,140
2017-09-28T15:25:35.189Z,135
2017-09-28T15:26:47.383Z,140
2017-09-28T15:27:59.909Z,140
2017-09-28T15:29:12.123Z,140
2017-09-28T15:30:24.021Z,140
2017-09-28T15:31:36.516Z,135
2017-09-28T15:32:48.715Z,135
2017-09-28T15:34:00.606Z,135
2017-09-28T15:35:12.501Z,135
2017-09-28T15:36:24.723Z,135
2017-09-28T15:37:37.297Z,130
2017-09-28T15:38:49.816Z,130
2017-09-28T15:40:01.709Z,125
2017-09-28T15:41:13.586Z,120
2017-09-28T15:42:25.775Z,120
2017-09-28T15:43:38.290Z,115
2017-09-28T15:44:50.517Z,110
2017-09-28T15:46:03.054Z,110
2017-09-28T15:47:15.250Z,110
2017-09-28T15:48:27.771Z,110
2017-09-28T15:49:39.975Z,110
2017-09-28T15:50:52.612Z,110
2017-09-28T15:52:04.822Z,110
2017-09-28T15:53:16.709Z,115
2017-09-28T15:54:28.912Z,115
2017-09-28T15:55:41.104Z,115
2017-09-28T15:56:53.003Z,110
2017-09-28T15:58:05.220Z,110
2017-09-28T15:59:17.490Z,110
2017-09-28T16:00:29.704Z,105
2017-09-28T16:01:41.605Z,105
2017-09-28T16:02:54.129Z,100
2017-09-28T16:04:06.324Z,100
2017-09-28T16:05:18.212Z,95
2017-09-28T16:06:30.739Z,95
2017-09-28T16:07:42.612Z,90
2017-09-28T16:08:55.183Z,90
2017-09-28T16:10:07.680Z,85
2017-09-28T16:11:19.922Z,85
2017-09-28T16:12:32.136Z,85
2017-09-28T16:13:44.637Z,80
2017-09-28T16:14:57.162Z,80
2017-09-28T16:16:09.327Z,80
2017-09-28T16:17:21.224Z,75
2017-09-28T16:18:33.724Z,75
2017-09-28T16:19:46.240Z,70
2017-09-28T16:20:58.442Z,65
2017-09-28T16:22:10.630Z,65
2017-09-28T16:23:22.834Z,60
2017-09-28T16:24:35.341Z,55
2017-09-28T16:25:47.862Z,55
2017-09-28T16:27:00.366Z,50
2017-09-28T16:28:12.936Z,45
2017-09-28T16:29:25.455Z,45
2017-09-28T16:30:37.983Z,40
2017-09-28T16:31:50.170Z,35
2017-09-28T16:33:02.685Z,30
2017-09-28T16:34:14.590Z,30
2017-09-28T16:35:27.115Z,25
2017-09-28T16:36:39.633Z,25
2017-09-28T16:37:52.124Z,20
2017-09-28T16:39:04.621Z,20
2017-09-28T16:40:17.141Z,15
2017-09-28T16:41:29.353Z,15
2017-09-28T16:42:41.258Z,15
2017-09-28T16:43:52.830Z,10
2017-09-28T16:45:05.083Z,10
2017-09-28T16:46:16.321Z,10
2017-09-28T16:47:28.840Z,10
2017-09-28T16:48:40.112Z,5
2017-09-28T16:49:52.023Z,5
2017-09-28T16:51:04.545Z,5
2017-09-28T16:52:16.747Z,5
2017-09-28T16:53:29.272Z,5
2017-09-28T16:54:41.165Z,5
2017-09-28T16:55:53.360Z,5
2017-09-28T16:57:04.955Z,0
2017-09-28T16:58:17.452Z,0
2017-09-28T16:59:29.970Z,0
2017-09-28T17:00:42.495Z,0